Newton, Iowa
Current Conditions -  °F | °C
As of 5:55 PM on Friday 28 Nov 2014 (Local Time) from KTNU Reporting Station
Clear Clear  
Wind Chill: 25°   Ceiling: Unl
Heat Index: 34°   Visibility: 10mi
Dew Point: 28°   Wind: 12mph
Humidity: 81%   Direction: 130°SE
Pressure: 29.78"   Gusts: NA
Location:  41.7°N, 93.04°W
Report Text: KTNU 282355Z AUTO 13010KT 10SM CLR 01/M02 A2978 RMK AO2
Loading
Personal Weather Stations






























Interactive Weather Map New forecast layout! Learn more

10-Day Weather Forecast

Advertisements
Track Severe Weather on mobile